PHTO/ITO METAR and TAF weather

Enter ICAO airport designator
Station Type Date Time Source
PHTO METAR 2021/02/28 03:53 UTC NOAA

PHTO 280353Z 08006KT 10SM OVC050 23/18 A3009 RMK AO2 RAB11E27 SLP189 P0001 T02280183


Station Type Date Time Source
PHTO Decoded METAR 2021/02/28 03:53 UTC NOAA

HILO INTERNATIONAL AIRPORT, HI, United States (PHTO) 19-43N 155-03W 12M
Feb 27, 2021 - 10:53 PM EST / 2021.02.28 0353 UTC
Wind: from the E (080 degrees) at 7 MPH (6 KT):0
Visibility: 10 mile(s):0
Sky conditions: overcast
Precipitation last hour: 0.01 inches
Temperature: 73.0 F (22.8 C)
Dew Point: 64.9 F (18.3 C)
Relative Humidity: 75%
Pressure (altimeter): 30.09 in. Hg (1018 hPa)
ob: PHTO 280353Z 08006KT 10SM OVC050 23/18 A3009 RMK AO2 RAB11E27 SLP189 P0001 T02280183
cycle: 4

Station Type Date Time Source
PHTO TAF 2021/02/27 19:59 UTC NOAA

TAF
AMD PHTO 271859Z 2719/2818 22007KT 6SM -SHRA SCT020 BKN050
TEMPO 2719/2722 3SM +RA BR BKN020
FM272200 11010KT 6SM SHRA BR SCT015 BKN045
FM280600 VRB06KT 4SM SHRA BR BKN020

Example: see airport list